Loachapoka, Alabama
Current Conditions -  °F | °C
As of 1:15 PM on Saturday 25 Oct 2014 (Local Time) from KAUO Reporting Station
Clear Clear  
Wind Chill: 72°   Ceiling: Unl
Heat Index: 72°   Visibility: 10mi
Dew Point: 48°   Wind: 13mph
Humidity: 43%   Direction: 320°NW
Pressure: 30.08"   Gusts: NA
Location:  32.6°N, 85.59°W
Report Text: KAUO 251815Z AUTO 32011KT 10SM CLR 22/09 A3008 RMK AO1
Loading
Personal Weather Stations






























Interactive Weather Map
Tropical Storm Tracking
New forecast layout! Learn more

10-Day Weather Forecast

Advertisements
Track Severe Weather on mobile